createdAt,value
2018-09-21T00:00:03.189Z,9.73
2018-09-21T00:02:31.715Z,11.70
2018-09-21T00:05:00.048Z,9.90
2018-09-21T00:07:28.353Z,11.73
2018-09-21T00:09:56.610Z,9.80
2018-09-21T00:12:24.982Z,8.97
2018-09-21T00:14:53.368Z,9.20
2018-09-21T00:17:21.650Z,8.83
2018-09-21T00:19:49.888Z,9.17
2018-09-21T00:22:18.229Z,9.00
2018-09-21T00:24:46.774Z,8.87
2018-09-21T00:27:15.181Z,8.43
2018-09-21T00:29:43.557Z,9.10
2018-09-21T00:32:11.913Z,9.00
2018-09-21T00:34:40.199Z,8.87
2018-09-21T00:37:09.269Z,9.17
2018-09-21T00:39:37.607Z,8.27
2018-09-21T00:42:05.901Z,8.23
2018-09-21T00:44:34.236Z,9.13
2018-09-21T00:47:02.602Z,9.37
2018-09-21T00:49:31.431Z,8.50
2018-09-21T00:51:59.687Z,9.33
2018-09-21T00:54:27.970Z,8.73
2018-09-21T00:56:56.392Z,9.93
2018-09-21T00:59:24.916Z,8.40
2018-09-21T01:01:53.459Z,10.00
2018-09-21T01:04:32.780Z,11.87
2018-09-21T01:07:01.532Z,9.93
2018-09-21T01:09:29.956Z,9.60
2018-09-21T01:11:58.276Z,9.23
2018-09-21T01:14:26.573Z,9.67
2018-09-21T01:16:54.970Z,10.00
2018-09-21T01:19:24.584Z,10.10
2018-09-21T01:21:53.518Z,9.50
2018-09-21T01:24:22.014Z,8.93
2018-09-21T01:26:50.458Z,9.17
2018-09-21T01:29:18.900Z,9.90
2018-09-21T01:31:47.745Z,10.27
2018-09-21T01:34:16.603Z,9.43
2018-09-21T01:36:44.902Z,9.60
2018-09-21T01:39:13.383Z,9.40
2018-09-21T01:41:41.829Z,9.37
2018-09-21T01:44:10.503Z,9.27
2018-09-21T01:46:39.549Z,9.10
2018-09-21T01:49:08.189Z,9.10
2018-09-21T01:51:36.652Z,9.70
2018-09-21T01:54:05.180Z,9.27
2018-09-21T01:56:33.502Z,8.90
2018-09-21T01:59:02.022Z,9.57
2018-09-21T02:01:30.459Z,9.13
2018-09-21T02:03:58.742Z,8.23
2018-09-21T02:06:26.967Z,9.20
2018-09-21T02:08:55.246Z,8.77
2018-09-21T02:11:23.596Z,8.93
2018-09-21T02:13:52.397Z,8.17
2018-09-21T02:16:20.694Z,8.50
2018-09-21T02:18:49.541Z,9.40
2018-09-21T02:21:18.099Z,8.20
2018-09-21T02:23:48.845Z,8.37
2018-09-21T02:26:17.220Z,8.23
2018-09-21T02:28:45.665Z,8.50
2018-09-21T02:31:13.978Z,8.67
2018-09-21T02:33:42.283Z,9.13
2018-09-21T02:36:10.596Z,8.27
2018-09-21T02:38:38.976Z,8.77
2018-09-21T02:41:07.357Z,8.67
2018-09-21T02:43:35.702Z,8.90
2018-09-21T02:46:03.986Z,9.27
2018-09-21T02:48:32.252Z,8.80
2018-09-21T02:51:00.598Z,9.27
2018-09-21T02:53:28.880Z,8.57
2018-09-21T02:55:57.069Z,9.10
2018-09-21T02:58:25.339Z,10.20
2018-09-21T03:00:53.744Z,9.20
2018-09-21T03:03:21.884Z,9.80
2018-09-21T03:05:50.177Z,10.23
2018-09-21T03:08:18.576Z,8.83
2018-09-21T03:10:46.992Z,9.03
2018-09-21T03:13:15.366Z,8.90
2018-09-21T03:15:43.762Z,9.33
2018-09-21T03:18:12.096Z,8.97
2018-09-21T03:20:40.348Z,9.27
2018-09-21T03:23:08.726Z,8.93
2018-09-21T03:25:37.045Z,9.27
2018-09-21T03:28:05.389Z,8.50
2018-09-21T03:30:33.868Z,9.10
2018-09-21T03:33:02.189Z,8.70
2018-09-21T03:35:31.325Z,9.50
2018-09-21T03:37:59.818Z,9.30
2018-09-21T03:40:28.196Z,9.17
2018-09-21T03:42:56.530Z,9.13
2018-09-21T03:45:24.965Z,9.37
2018-09-21T03:47:53.223Z,9.60
2018-09-21T03:50:21.636Z,9.50
2018-09-21T03:52:50.012Z,31.87
2018-09-21T03:55:18.461Z,32.00
2018-09-21T03:57:47.057Z,13.73
2018-09-21T04:00:15.602Z,10.07
2018-09-21T04:02:44.139Z,10.30
2018-09-21T04:05:12.496Z,9.57
2018-09-21T04:07:40.936Z,10.60
2018-09-21T04:10:09.247Z,9.80
2018-09-21T04:12:37.626Z,9.30
2018-09-21T04:15:06.702Z,9.93
2018-09-21T04:17:35.185Z,10.20
2018-09-21T04:20:03.662Z,9.97
2018-09-21T04:22:32.382Z,10.20
2018-09-21T04:25:00.853Z,9.77
2018-09-21T04:27:29.799Z,9.90
2018-09-21T04:29:58.755Z,9.63
2018-09-21T04:32:30.723Z,10.17
2018-09-21T04:34:59.212Z,10.17
2018-09-21T04:37:27.770Z,9.80
2018-09-21T04:39:56.282Z,11.07
2018-09-21T04:42:25.383Z,9.50
2018-09-21T04:44:53.942Z,9.97
2018-09-21T04:47:22.486Z,10.13
2018-09-21T04:49:50.941Z,9.83
2018-09-21T04:52:26.011Z,9.77
2018-09-21T04:54:54.425Z,11.43
2018-09-21T04:57:22.826Z,35.53
2018-09-21T04:59:51.202Z,20.17
2018-09-21T05:02:19.699Z,13.53
2018-09-21T05:04:48.923Z,10.87
2018-09-21T05:07:17.406Z,10.50
2018-09-21T05:09:45.909Z,9.90
2018-09-21T05:12:14.407Z,9.57
2018-09-21T05:14:42.829Z,9.30
2018-09-21T05:17:11.414Z,9.70
2018-09-21T05:19:39.848Z,9.30
2018-09-21T05:22:08.239Z,10.07
2018-09-21T05:24:36.774Z,9.77
2018-09-21T05:27:05.178Z,9.70
2018-09-21T05:29:33.518Z,9.50
2018-09-21T05:32:01.851Z,10.37
2018-09-21T05:34:30.194Z,9.47
2018-09-21T05:36:58.568Z,8.93
2018-09-21T05:39:27.047Z,9.43
2018-09-21T05:41:55.482Z,8.83
2018-09-21T05:44:24.532Z,8.40
2018-09-21T05:46:52.937Z,9.27
2018-09-21T05:49:21.736Z,9.93
2018-09-21T05:51:50.280Z,9.27
2018-09-21T05:54:18.661Z,9.30
2018-09-21T05:56:47.898Z,8.43
2018-09-21T05:59:16.528Z,8.17
2018-09-21T06:01:44.863Z,8.07
2018-09-21T06:04:13.476Z,8.30
2018-09-21T06:06:41.920Z,7.77
2018-09-21T06:09:12.648Z,7.73
2018-09-21T06:11:41.722Z,34.23
2018-09-21T06:14:11.011Z,17.73
2018-09-21T06:16:39.379Z,8.70
2018-09-21T06:19:08.254Z,8.40
2018-09-21T06:21:36.820Z,8.13
2018-09-21T06:24:05.822Z,7.43
2018-09-21T06:26:34.331Z,7.57
2018-09-21T06:29:02.886Z,7.30
2018-09-21T06:31:31.293Z,7.37
2018-09-21T06:33:59.817Z,7.23
2018-09-21T06:36:28.320Z,7.00
2018-09-21T06:38:57.122Z,7.23
2018-09-21T06:41:25.660Z,7.57
2018-09-21T06:43:54.019Z,6.80
2018-09-21T06:46:22.325Z,7.23
2018-09-21T06:48:50.932Z,7.30
2018-09-21T06:51:19.372Z,7.83
2018-09-21T06:53:47.808Z,8.63
2018-09-21T06:56:16.267Z,6.87
2018-09-21T06:58:44.757Z,7.30
2018-09-21T07:01:13.538Z,6.40
2018-09-21T07:03:42.141Z,8.57
2018-09-21T07:06:10.483Z,7.20
2018-09-21T07:08:39.047Z,6.30
2018-09-21T07:11:07.361Z,6.47
2018-09-21T07:13:35.877Z,7.20
2018-09-21T07:16:04.442Z,6.43
2018-09-21T07:18:34.199Z,6.40
2018-09-21T07:21:02.538Z,6.17
2018-09-21T07:23:30.885Z,6.10
2018-09-21T07:25:59.319Z,6.80
2018-09-21T07:28:34.855Z,6.20
2018-09-21T07:31:03.289Z,6.13
2018-09-21T07:33:31.545Z,7.10
2018-09-21T07:35:59.916Z,7.30
2018-09-21T07:38:28.272Z,7.30
2018-09-21T07:40:56.649Z,9.90
2018-09-21T07:43:25.402Z,7.00
2018-09-21T07:45:53.827Z,6.30
2018-09-21T07:48:22.119Z,5.97
2018-09-21T07:50:50.490Z,7.20
2018-09-21T07:53:18.823Z,6.60
2018-09-21T07:55:47.096Z,5.67
2018-09-21T07:58:15.523Z,6.27
2018-09-21T08:00:43.864Z,5.63
2018-09-21T08:03:12.111Z,5.83
2018-09-21T08:05:40.527Z,5.90
2018-09-21T08:08:09.063Z,5.77
2018-09-21T08:10:37.473Z,5.63
2018-09-21T08:13:05.772Z,7.80
2018-09-21T08:15:34.383Z,7.60
2018-09-21T08:18:02.824Z,6.07
2018-09-21T08:20:31.311Z,6.77
2018-09-21T08:22:59.766Z,7.07
2018-09-21T08:25:28.082Z,7.33
2018-09-21T08:27:56.631Z,6.40
2018-09-21T08:30:26.259Z,5.60
2018-09-21T08:32:54.704Z,5.30
2018-09-21T08:35:23.090Z,5.50
2018-09-21T08:37:51.670Z,6.23
2018-09-21T08:40:20.094Z,5.30
2018-09-21T08:42:48.483Z,5.13
2018-09-21T08:45:16.922Z,5.80
2018-09-21T08:47:45.743Z,6.10
2018-09-21T08:50:14.258Z,5.50
2018-09-21T08:52:43.256Z,5.50
2018-09-21T08:55:12.143Z,5.93
2018-09-21T08:57:40.787Z,5.90
2018-09-21T09:00:10.127Z,5.70
2018-09-21T09:02:39.043Z,5.67
2018-09-21T09:05:07.406Z,5.83
2018-09-21T09:07:35.653Z,5.90
2018-09-21T09:10:04.683Z,6.37
2018-09-21T09:12:33.040Z,7.37
2018-09-21T09:15:01.542Z,7.40
2018-09-21T09:17:30.014Z,7.00
2018-09-21T09:19:58.400Z,7.70
2018-09-21T09:22:26.715Z,6.10
2018-09-21T09:24:55.286Z,5.63
2018-09-21T09:27:23.922Z,5.90
2018-09-21T09:29:52.655Z,5.73
2018-09-21T09:32:20.934Z,5.13
2018-09-21T09:34:49.252Z,5.83
2018-09-21T09:37:17.605Z,5.87
2018-09-21T09:39:46.152Z,5.80
2018-09-21T09:42:14.447Z,5.20
2018-09-21T09:44:43.435Z,5.60
2018-09-21T09:47:18.497Z,6.07
2018-09-21T09:49:46.830Z,7.33
2018-09-21T09:52:15.211Z,5.57
2018-09-21T09:54:44.461Z,6.33
2018-09-21T09:57:12.826Z,5.80
2018-09-21T09:59:41.293Z,5.63
2018-09-21T10:02:09.665Z,5.60
2018-09-21T10:04:38.054Z,5.00
2018-09-21T10:07:07.673Z,5.37
2018-09-21T10:09:37.373Z,11.07
2018-09-21T10:12:05.888Z,5.10
2018-09-21T10:14:34.675Z,5.90
2018-09-21T10:17:03.025Z,5.43
2018-09-21T10:19:31.355Z,5.07
2018-09-21T10:21:59.684Z,5.20
2018-09-21T10:24:28.115Z,4.40
2018-09-21T10:26:56.462Z,5.30
2018-09-21T10:29:24.896Z,5.90
2018-09-21T10:31:53.348Z,5.07
2018-09-21T10:34:22.307Z,4.77
2018-09-21T10:36:50.840Z,5.00
2018-09-21T10:39:19.428Z,5.07
2018-09-21T10:41:47.850Z,5.40
2018-09-21T10:44:16.453Z,5.57
2018-09-21T10:46:45.429Z,4.90
2018-09-21T10:49:13.995Z,4.53
2018-09-21T10:51:42.314Z,4.20
2018-09-21T10:54:10.872Z,4.70
2018-09-21T10:56:39.854Z,5.60
2018-09-21T10:59:08.422Z,5.20
2018-09-21T11:01:37.071Z,4.23
2018-09-21T11:04:05.589Z,5.20
2018-09-21T11:06:34.092Z,4.90
2018-09-21T11:09:02.540Z,4.40
2018-09-21T11:11:31.847Z,4.63
2018-09-21T11:14:00.455Z,4.60
2018-09-21T11:16:29.881Z,5.00
2018-09-21T11:18:58.998Z,5.07
2018-09-21T11:21:27.454Z,4.90
2018-09-21T11:23:55.772Z,5.60
2018-09-21T11:26:24.362Z,4.80
2018-09-21T11:28:53.051Z,5.43
2018-09-21T11:31:22.300Z,6.27
2018-09-21T11:33:51.391Z,5.30
2018-09-21T11:36:19.800Z,5.77
2018-09-21T11:38:48.315Z,5.30
2018-09-21T11:41:16.717Z,5.07
2018-09-21T11:43:45.512Z,5.73
2018-09-21T11:46:13.838Z,5.50
2018-09-21T11:48:42.379Z,5.77
2018-09-21T11:51:10.889Z,5.80
2018-09-21T11:53:39.348Z,5.37
2018-09-21T11:56:07.843Z,6.60
2018-09-21T11:58:36.356Z,5.55
2018-09-21T12:01:04.832Z,5.40
2018-09-21T12:03:33.429Z,5.77
2018-09-21T12:06:05.681Z,5.30
2018-09-21T12:08:38.338Z,4.97
2018-09-21T12:11:06.937Z,5.55
2018-09-21T12:13:36.113Z,5.30
2018-09-21T12:16:04.812Z,5.37
2018-09-21T12:18:33.452Z,5.57
2018-09-21T12:21:02.200Z,11.07
2018-09-21T12:23:31.083Z,20.80
2018-09-21T12:25:59.671Z,8.08
2018-09-21T12:28:28.384Z,5.85
2018-09-21T12:30:56.823Z,6.03
2018-09-21T12:33:25.451Z,6.65
2018-09-21T12:35:53.859Z,5.65
2018-09-21T12:38:22.343Z,5.15
2018-09-21T12:40:50.735Z,5.90
2018-09-21T12:43:19.145Z,5.83
2018-09-21T12:45:48.541Z,5.75
2018-09-21T12:48:18.164Z,5.73
2018-09-21T12:50:46.719Z,6.13
2018-09-21T12:53:15.785Z,5.27
2018-09-21T12:55:44.249Z,5.65
2018-09-21T12:58:12.703Z,5.40
2018-09-21T13:00:46.683Z,6.00
2018-09-21T13:03:15.173Z,5.30
2018-09-21T13:05:43.730Z,6.22
2018-09-21T13:08:12.434Z,5.93
2018-09-21T13:10:41.221Z,5.67
2018-09-21T13:13:09.589Z,5.57
2018-09-21T13:15:38.195Z,5.60
2018-09-21T13:18:06.941Z,5.83
2018-09-21T13:20:36.843Z,5.63
2018-09-21T13:23:05.626Z,5.57
2018-09-21T13:25:34.296Z,6.23
2018-09-21T13:28:02.951Z,6.53
2018-09-21T13:30:32.521Z,5.47
2018-09-21T13:33:01.431Z,5.57
2018-09-21T13:35:30.833Z,5.80
2018-09-21T13:37:59.802Z,5.27
2018-09-21T13:40:43.659Z,6.70
2018-09-21T13:43:12.363Z,5.87
2018-09-21T13:45:41.085Z,5.70
2018-09-21T13:48:09.865Z,6.30
2018-09-21T13:50:38.987Z,5.97
2018-09-21T13:53:07.727Z,6.30
2018-09-21T13:55:36.161Z,6.40
2018-09-21T13:58:04.635Z,6.40
2018-09-21T14:00:33.084Z,5.50
2018-09-21T14:03:01.764Z,5.67
2018-09-21T14:05:30.290Z,5.87
2018-09-21T14:07:58.791Z,5.60
2018-09-21T14:10:27.297Z,5.27
2018-09-21T14:12:55.831Z,5.50
2018-09-21T14:15:24.469Z,6.10
2018-09-21T14:17:53.062Z,5.20
2018-09-21T14:20:21.650Z,5.73
2018-09-21T14:22:50.853Z,6.00
2018-09-21T14:25:19.372Z,5.30
2018-09-21T14:27:47.961Z,5.70
2018-09-21T14:30:17.282Z,6.20
2018-09-21T14:32:45.775Z,6.07
2018-09-21T14:35:14.908Z,6.03
2018-09-21T14:37:47.176Z,6.63
2018-09-21T14:40:15.843Z,10.47
2018-09-21T14:42:45.560Z,7.87
2018-09-21T14:45:14.845Z,6.10
2018-09-21T14:47:43.527Z,4.43
2018-09-21T14:50:12.695Z,4.80
2018-09-21T14:52:41.436Z,4.40
2018-09-21T14:55:10.532Z,4.03
2018-09-21T14:57:39.410Z,3.50
2018-09-21T15:00:08.292Z,3.43
2018-09-21T15:02:43.242Z,3.50
2018-09-21T15:05:13.592Z,3.90
2018-09-21T15:07:43.915Z,2.83
2018-09-21T15:10:13.092Z,2.50
2018-09-21T15:12:41.965Z,2.50
2018-09-21T15:15:10.685Z,2.57
2018-09-21T15:17:39.970Z,2.40
2018-09-21T15:20:14.980Z,3.10
2018-09-21T15:22:43.322Z,2.37
2018-09-21T15:28:02.011Z,2.40
2018-09-21T15:30:30.855Z,2.60
2018-09-21T15:32:59.644Z,2.30
2018-09-21T15:35:28.506Z,1.93
2018-09-21T15:37:57.057Z,2.63
2018-09-21T15:40:25.871Z,2.50
2018-09-21T15:42:56.328Z,2.63
2018-09-21T15:45:26.132Z,2.33
2018-09-21T15:47:55.015Z,2.10
2018-09-21T15:50:23.809Z,1.83
2018-09-21T15:52:52.609Z,2.00
2018-09-21T15:55:21.305Z,2.40
2018-09-21T15:57:49.944Z,3.60
2018-09-21T16:00:18.317Z,2.63
2018-09-21T16:02:46.971Z,2.40
2018-09-21T16:05:15.543Z,3.07
2018-09-21T16:07:44.611Z,2.90
2018-09-21T16:10:21.743Z,2.03
2018-09-21T16:12:50.592Z,2.47
2018-09-21T16:15:19.191Z,2.50
2018-09-21T16:17:48.243Z,2.20
2018-09-21T16:20:17.923Z,2.77
2018-09-21T16:22:46.635Z,2.30
2018-09-21T16:25:15.227Z,2.57
2018-09-21T16:27:43.837Z,2.97
2018-09-21T16:30:12.310Z,3.67
2018-09-21T16:32:40.815Z,2.77
2018-09-21T16:35:09.290Z,2.33
2018-09-21T16:37:37.856Z,2.70
2018-09-21T16:40:07.066Z,4.60
2018-09-21T16:42:35.531Z,3.27
2018-09-21T16:45:05.146Z,12.97
2018-09-21T16:47:35.021Z,2.90
2018-09-21T16:50:03.838Z,2.10
2018-09-21T16:52:32.504Z,2.40
2018-09-21T16:55:01.324Z,2.30
2018-09-21T16:57:29.922Z,2.40
2018-09-21T16:59:58.499Z,5.97
2018-09-21T17:02:27.246Z,13.70
2018-09-21T17:04:55.829Z,6.33
2018-09-21T17:07:24.466Z,3.47
2018-09-21T17:09:53.336Z,3.30
2018-09-21T17:12:21.769Z,2.83
2018-09-21T17:14:50.488Z,2.93
2018-09-21T17:17:19.182Z,2.73
2018-09-21T17:19:48.409Z,2.97
2018-09-21T17:22:16.996Z,2.90
2018-09-21T17:24:45.619Z,3.13
2018-09-21T17:27:14.146Z,2.80
2018-09-21T17:29:43.050Z,2.90
2018-09-21T17:32:12.451Z,2.63
2018-09-21T17:34:46.748Z,2.70
2018-09-21T17:37:15.324Z,2.40
2018-09-21T17:39:58.286Z,2.30
2018-09-21T17:42:28.137Z,5.60
2018-09-21T17:44:56.782Z,6.13
2018-09-21T17:47:25.231Z,3.83
2018-09-21T17:50:31.460Z,3.03
2018-09-21T17:53:05.934Z,3.30
2018-09-21T17:55:35.146Z,3.67
2018-09-21T17:58:03.703Z,5.50
2018-09-21T18:00:32.109Z,6.67
2018-09-21T18:03:00.604Z,5.30
2018-09-21T18:05:29.413Z,3.87
2018-09-21T18:07:58.152Z,5.50
2018-09-21T18:10:29.010Z,5.77
2018-09-21T18:12:58.279Z,3.90
2018-09-21T18:15:27.272Z,3.50
2018-09-21T18:17:55.989Z,3.00
2018-09-21T18:20:24.856Z,4.03
2018-09-21T18:22:53.659Z,3.40
2018-09-21T18:25:22.521Z,6.07
2018-09-21T18:27:51.223Z,3.63
2018-09-21T18:30:19.939Z,3.97
2018-09-21T18:32:48.766Z,5.10
2018-09-21T18:35:17.507Z,4.07
2018-09-21T18:37:45.930Z,3.87
2018-09-21T18:40:14.714Z,3.97
2018-09-21T18:42:43.307Z,3.67
2018-09-21T18:45:11.813Z,3.60
2018-09-21T18:47:40.424Z,3.33
2018-09-21T18:50:09.202Z,3.77
2018-09-21T18:52:38.788Z,3.37
2018-09-21T18:55:07.197Z,3.23
2018-09-21T18:57:35.598Z,9.80
2018-09-21T19:00:03.976Z,10.60
2018-09-21T19:02:32.357Z,5.70
2018-09-21T19:05:00.997Z,3.47
2018-09-21T19:07:31.473Z,4.53
2018-09-21T19:10:00.510Z,5.90
2018-09-21T19:12:29.459Z,3.80
2018-09-21T19:14:57.993Z,3.40
2018-09-21T19:17:26.505Z,3.60
2018-09-21T19:19:55.064Z,3.70
2018-09-21T19:22:23.885Z,3.60
2018-09-21T19:24:52.500Z,3.87
2018-09-21T19:27:21.167Z,3.60
2018-09-21T19:29:49.669Z,3.33
2018-09-21T19:32:18.164Z,3.83
2018-09-21T19:34:46.820Z,3.90
2018-09-21T19:37:15.400Z,3.53
2018-09-21T19:39:44.093Z,3.83
2018-09-21T19:42:13.091Z,3.40
2018-09-21T19:44:44.572Z,3.63
2018-09-21T19:47:13.472Z,3.20
2018-09-21T19:49:42.942Z,3.10
2018-09-21T19:52:11.838Z,2.83
2018-09-21T19:54:42.054Z,3.70
2018-09-21T19:57:11.198Z,3.83
2018-09-21T19:59:40.772Z,3.80
2018-09-21T20:02:09.795Z,4.63
2018-09-21T20:04:38.653Z,4.00
2018-09-21T20:07:08.708Z,4.07
2018-09-21T20:09:38.110Z,3.83
2018-09-21T20:12:07.182Z,4.10
2018-09-21T20:14:35.848Z,4.00
2018-09-21T20:17:11.152Z,3.93
2018-09-21T20:19:46.934Z,4.00
2018-09-21T20:22:17.029Z,3.80
2018-09-21T20:24:46.066Z,4.90
2018-09-21T20:27:14.741Z,4.50
2018-09-21T20:29:43.317Z,4.60
2018-09-21T20:32:17.899Z,4.70
2018-09-21T20:34:46.423Z,4.13
2018-09-21T20:37:16.165Z,3.80
2018-09-21T20:39:44.571Z,3.97
2018-09-21T20:42:14.209Z,4.33
2018-09-21T20:44:42.883Z,3.17
2018-09-21T20:47:11.484Z,4.03
2018-09-21T20:49:40.208Z,4.73
2018-09-21T20:52:08.744Z,3.03
2018-09-21T20:54:37.583Z,3.70
2018-09-21T20:57:05.758Z,8.23
2018-09-21T20:59:34.075Z,5.00
2018-09-21T21:02:02.874Z,3.00
2018-09-21T21:04:32.249Z,3.60
2018-09-21T21:07:00.726Z,2.90
2018-09-21T21:09:29.170Z,2.90
2018-09-21T21:11:57.811Z,3.20
2018-09-21T21:14:26.620Z,3.63
2018-09-21T21:16:55.712Z,3.97
2018-09-21T21:19:27.140Z,4.50
2018-09-21T21:21:56.477Z,3.13
2018-09-21T21:24:25.051Z,3.80
2018-09-21T21:26:53.561Z,2.80
2018-09-21T21:29:22.033Z,3.10
2018-09-21T21:31:50.707Z,5.30
2018-09-21T21:34:19.136Z,2.60
2018-09-21T21:36:47.787Z,18.30
2018-09-21T21:39:16.374Z,4.13
2018-09-21T21:41:44.885Z,3.90
2018-09-21T21:44:13.438Z,4.23
2018-09-21T21:46:41.983Z,3.57
2018-09-21T21:49:10.703Z,3.50
2018-09-21T21:51:39.161Z,3.23
2018-09-21T21:54:07.417Z,2.47
2018-09-21T21:56:35.777Z,2.87
2018-09-21T21:59:04.284Z,2.60
2018-09-21T22:01:37.992Z,2.30
2018-09-21T22:04:06.735Z,2.93
2018-09-21T22:06:40.454Z,2.80
2018-09-21T22:09:10.456Z,3.47
2018-09-21T22:11:44.111Z,3.30
2018-09-21T22:14:13.183Z,3.77
2018-09-21T22:16:41.918Z,22.67
2018-09-21T22:19:11.230Z,25.00
2018-09-21T22:21:39.764Z,7.70
2018-09-21T22:24:08.436Z,4.03
2018-09-21T22:26:36.769Z,3.17
2018-09-21T22:29:05.152Z,2.93
2018-09-21T22:31:33.500Z,2.70
2018-09-21T22:34:01.832Z,2.70
2018-09-21T22:36:30.208Z,2.70
2018-09-21T22:38:58.889Z,2.83
2018-09-21T22:44:11.702Z,3.10
2018-09-21T22:46:40.257Z,3.43
2018-09-21T22:49:16.458Z,2.93
2018-09-21T22:51:44.829Z,3.00
2018-09-21T22:54:13.660Z,2.93
2018-09-21T22:56:42.279Z,2.87
2018-09-21T22:59:11.426Z,3.07
2018-09-21T23:01:40.152Z,2.30
2018-09-21T23:04:08.658Z,2.53
2018-09-21T23:06:37.259Z,2.40
2018-09-21T23:09:08.359Z,2.83
2018-09-21T23:11:36.856Z,3.67
2018-09-21T23:14:05.356Z,2.60
2018-09-21T23:16:34.026Z,3.20
2018-09-21T23:19:03.326Z,18.83
2018-09-21T23:21:31.609Z,3.27
2018-09-21T23:24:00.181Z,4.70
2018-09-21T23:26:28.835Z,4.47
2018-09-21T23:28:57.231Z,4.23
2018-09-21T23:31:25.831Z,3.13
2018-09-21T23:33:54.711Z,3.03
2018-09-21T23:36:23.104Z,2.73
2018-09-21T23:38:51.944Z,3.10
2018-09-21T23:41:20.195Z,3.30
2018-09-21T23:43:48.753Z,3.10
2018-09-21T23:46:17.179Z,2.70
2018-09-21T23:48:45.528Z,2.60
2018-09-21T23:51:14.070Z,2.80
2018-09-21T23:53:42.539Z,2.50
2018-09-21T23:56:10.948Z,3.50
2018-09-21T23:58:39.442Z,4.33
